Latest Weather Observations for Pallamana

IDS60901

Issued at 9:11 pm CST Monday 6 July 2015 (issued every 10 minutes, with the page automatically refreshed every 10 minutes)

About weather observations | Map of Adelaide area stations | Latest observations for Adelaide area | Other Formats
Station Details ID: 024584 Name: PALLAMANA AERODROME Lat: -35.06 Lon: 139.23 Height: 45.0 m
Data from the previous 72 hours. | See also: Recent months at Pallamana
Date/Time
CST
Tmp

°C
App
Tmp
°C
Dew
Point
°C
Rel
Hum
%
Delta-T

°C
Wind Press
QNH
hPa
Press
MSL
hPa
Rain
since
9 am
mm
Dir
 
Spd
km/h
Gust
km/h
Spd
kts
Gust
kts
06/09:00pm 6.8 3.8 5.9 94 0.4 NNW 11 13 6 7 1018.6 1018.6 0.2
06/08:30pm 7.7 4.7 6.2 90 0.7 NW 11 13 6 7 1018.4 1018.4 0.2
06/08:00pm 7.4 4.8 6.1 91 0.6 NNW 9 11 5 6 1018.2 1018.2 0.2
06/07:30pm 10.2 7.9 7.5 83 1.3 WNW 9 11 5 6 1018.1 1018.1 0.2
06/07:00pm 10.2 7.2 7.5 83 1.3 WNW 13 17 7 9 1017.8 1017.8 0.2
06/06:30pm 9.9 7.2 7.2 83 1.3 WNW 11 13 6 7 1017.7 1017.7 0.2
06/06:00pm 10.5 8.2 7.4 81 1.5 W 9 11 5 6 1017.6 1017.6 0.2
06/05:30pm 12.1 9.2 8.0 76 2.0 W 13 17 7 9 1017.3 1017.3 0.2
06/05:00pm 12.8 10.4 8.6 75 2.1 W 11 15 6 8 1016.8 1016.8 0.2
06/04:30pm 13.2 9.6 8.4 72 2.4 W 17 22 9 12 1016.5 1016.5 0.2
06/04:00pm 14.2 9.8 7.5 64 3.3 WNW 20 30 11 16 1016.2 1016.2 0.2
06/03:30pm 15.2 10.0 7.1 58 4.0 WNW 24 33 13 18 1016.1 1016.1 0.2
06/03:00pm 15.3 9.9 6.5 55 4.3 W 24 33 13 18 1015.8 1015.8 0.2
06/02:30pm 15.6 10.3 6.8 56 4.3 W 24 33 13 18 1015.7 1015.7 0.2
06/02:00pm 16.0 9.9 6.6 53 4.6 WNW 28 37 15 20 1015.6 1015.6 0.2
06/01:30pm 16.5 10.3 6.3 51 5.0 WNW 28 37 15 20 1015.8 1015.8 0.2
06/01:00pm 16.3 10.9 6.2 51 4.9 WNW 24 33 13 18 1016.0 1016.0 0.0
06/12:30pm 15.9 10.0 6.0 52 4.8 W 26 39 14 21 1016.0 1016.0 0.0
06/12:00pm 15.7 10.0 6.7 55 4.4 WNW 26 37 14 20 1016.3 1016.3 0.0
06/11:30am 15.7 10.4 7.0 56 4.3 W 24 33 13 18 1016.5 1016.5 0.0
06/11:00am 15.3 9.7 7.2 58 4.0 WNW 26 39 14 21 1016.6 1016.6 0.0
06/10:30am 14.9 10.2 7.9 63 3.5 WNW 22 32 12 17 1016.8 1016.8 0.0
06/10:00am 14.1 11.1 9.2 72 2.5 NNW 15 20 8 11 1016.7 1016.7 0.0
06/09:30am 12.7 8.9 8.9 78 1.9 NNW 19 22 10 12 1016.6 1016.6 0.0
06/09:00am 12.0 9.3 9.0 82 1.5 NNW 13 17 7 9 1016.4 1016.4 1.4
06/08:30am 10.4 7.5 8.1 86 1.1 N 13 19 7 10 1016.0 1016.0 1.4
06/08:00am 10.0 6.2 7.7 86 1.1 NNW 17 22 9 12 1015.9 1015.9 1.4
06/07:30am 8.8 4.8 6.6 86 1.0 NNW 17 20 9 11 1015.8 1015.8 1.4
06/07:00am 6.4 3.6 5.3 93 0.5 N 9 11 5 6 1015.7 1015.7 1.4
06/06:30am 8.3 6.2 6.6 89 0.8 N 7 9 4 5 1015.8 1015.8 1.4
06/06:00am 9.3 7.4 7.4 88 0.9 NNW 7 9 4 5 1015.6 1015.6 1.4
06/05:30am 9.2 7.3 7.7 90 0.7 W 7 11 4 6 1015.7 1015.7 1.2
06/05:00am 8.8 7.1 7.5 91 0.6 NNW 6 7 3 4 1015.5 1015.5 0.8
06/04:30am 9.4 8.2 7.9 90 0.7 N 4 6 2 3 1015.7 1015.7 0.8
06/04:00am 10.2 8.0 7.7 84 1.2 NW 9 13 5 7 1015.9 1015.9 0.8
06/03:30am 10.9 6.4 6.9 76 1.9 WSW 20 26 11 14 1016.5 1016.5 0.0
06/03:00am 13.4 7.7 3.1 49 4.6 WNW 22 30 12 16 1016.2 1016.2 0.0
06/02:30am 13.5 6.3 2.9 48 4.7 NW 30 37 16 20 1015.1 1015.1 0.0
06/02:00am 13.0 7.7 3.1 51 4.4 NNW 20 30 11 16 1015.0 1015.0 0.0
06/01:30am 9.7 6.4 4.3 69 2.4 N 11 15 6 8 1015.6 1015.6 0.0
06/01:00am 9.5 5.2 3.5 66 2.6 N 15 17 8 9 1015.8 1015.8 0.0
06/12:30am 10.8 6.6 3.8 62 3.1 N 15 24 8 13 1016.1 1016.1 0.0
06/12:00am 9.0 6.1 4.7 74 1.9 N 9 13 5 7 1016.4 1016.4 0.0
 
Date/Time
CST
Tmp

°C
App
Tmp
°C
Dew
Point
°C
Rel
Hum
%
Delta-T

°C
Wind Press
QNH
hPa
Press
MSL
hPa
Rain
since
9 am
mm
Dir
 
Spd
km/h
Gust
km/h
Spd
kts
Gust
kts
05/11:30pm 10.1 6.4 4.5 68 2.5 N 13 15 7 8 1016.7 1016.7 0.0
05/11:00pm 10.6 6.9 4.6 66 2.7 N 13 15 7 8 1016.7 1016.7 0.0
05/10:30pm 11.0 7.3 4.6 64 2.9 N 13 15 7 8 1017.0 1017.0 0.0
05/10:00pm 10.9 7.6 4.7 65 2.8 N 11 15 6 8 1017.3 1017.3 0.0
05/09:30pm 10.8 7.1 4.6 65 2.8 NNW 13 15 7 8 1017.3 1017.3 0.0
05/09:00pm 10.8 6.7 4.6 65 2.8 N 15 19 8 10 1017.3 1017.3 0.0
05/08:30pm 11.7 7.2 4.4 61 3.3 NNW 17 19 9 10 1017.2 1017.2 0.0
05/08:00pm 12.9 8.0 4.1 55 4.0 NNW 19 24 10 13 1017.3 1017.3 0.0
05/07:30pm 13.8 8.8 3.6 50 4.6 NNW 19 22 10 12 1017.4 1017.4 0.0
05/07:00pm 14.9 9.3 3.2 45 5.3 N 22 32 12 17 1017.2 1017.2 0.0
05/06:30pm 15.5 10.2 2.9 42 5.7 NW 20 32 11 17 1017.2 1017.2 0.0
05/06:00pm 15.1 11.3 4.0 47 5.1 N 13 24 7 13 1017.2 1017.2 0.0
05/05:30pm 14.1 10.8 4.3 51 4.5 N 11 15 6 8 1017.2 1017.2 0.0
05/05:00pm 15.8 11.5 3.0 42 5.8 NW 15 20 8 11 1017.2 1017.2 0.0
05/04:30pm 16.9 12.1 2.6 38 6.5 NW 17 26 9 14 1017.3 1017.3 0.0
05/04:00pm 16.1 12.3 4.1 45 5.6 NW 13 20 7 11 1017.3 1017.3 0.0
05/03:30pm 16.2 11.0 3.6 43 5.8 NW 20 28 11 15 1017.2 1017.2 0.0
05/03:00pm 17.2 10.7 2.4 37 6.7 WNW 26 33 14 18 1017.4 1017.4 0.0
05/02:30pm 17.6 11.9 3.1 38 6.7 NW 22 35 12 19 1017.5 1017.5 0.0
05/02:00pm 17.4 10.9 2.4 36 6.8 WNW 26 39 14 21 1017.5 1017.5 0.0
05/01:30pm 17.4 9.7 2.4 36 6.8 NW 32 43 17 23 1017.7 1017.7 0.0
05/01:00pm 17.2 10.7 2.7 38 6.6 WNW 26 37 14 20 1018.0 1018.0 0.0
05/12:30pm 17.1 10.3 2.9 38 6.5 WNW 28 41 15 22 1018.4 1018.4 0.0
05/12:00pm 17.4 10.9 2.7 37 6.7 WNW 26 33 14 18 1018.8 1018.8 0.0
05/11:30am 16.7 10.7 3.2 40 6.2 WNW 24 33 13 18 1019.3 1019.4 0.0
05/11:00am 16.6 11.5 3.3 41 6.1 NW 19 26 10 14 1019.8 1019.9 0.0
05/10:30am 15.3 12.4 6.7 56 4.2 N 11 19 6 10 1020.1 1020.2 0.0
05/10:00am 12.3 10.5 8.0 75 2.1 NNE 7 9 4 5 1020.5 1020.6 0.0
05/09:30am 10.1 7.7 6.9 80 1.5 NNE 9 13 5 7 1020.4 1020.5 0.0
05/09:00am 7.1 5.0 5.8 91 0.6 N 6 9 3 5 1020.5 1020.6 0.0
05/08:30am 4.9 2.2 3.9 93 0.4 NNW 7 9 4 5 1020.6 1020.7 0.0
05/08:00am 3.4 0.2 2.9 97 0.2 NW 9 11 5 6 1020.5 1020.6 0.0
05/07:30am 2.8 -0.9 2.3 96 0.2 NNW 11 13 6 7 1020.4 1020.5 0.0
05/07:00am 3.2 -0.4 2.7 96 0.2 NNW 11 13 6 7 1020.5 1020.6 0.0
05/06:30am 2.9 -0.4 2.4 96 0.2 NNW 9 11 5 6 1020.4 1020.5 0.0
05/06:00am 2.8 -0.5 2.3 96 0.2 NNW 9 11 5 6 1020.2 1020.3 0.0
05/05:30am 0.5 -2.7 0.5 100 0.0 NNW 7 9 4 5 1020.2 1020.3 0.0
05/05:00am 3.5 0.3 3.0 97 0.2 NNW 9 11 5 6 1020.3 1020.4 0.0
05/04:30am 4.4 1.7 3.7 95 0.3 NNW 7 7 4 4 1020.3 1020.4 0.0
05/04:00am 1.7 -1.2 1.4 98 0.1 NNW 6 7 3 4 1020.3 1020.4 0.0
05/03:30am 3.9 1.1 3.4 97 0.2 NNW 7 7 4 4 1020.4 1020.5 0.0
05/03:00am 4.1 1.3 3.4 95 0.3 N 7 9 4 5 1020.5 1020.6 0.0
05/02:30am 4.4 0.9 3.4 93 0.4 NNW 11 11 6 6 1020.6 1020.7 0.0
05/02:00am 4.3 1.1 2.8 90 0.6 NNW 9 9 5 5 1020.5 1020.6 0.0
05/01:30am 3.7 0.8 2.7 93 0.4 NNW 7 9 4 5 1020.7 1020.8 0.0
05/01:00am 5.0 2.0 4.0 93 0.4 NNW 9 11 5 6 1021.0 1021.1 0.0
05/12:30am 2.9 -0.5 1.9 93 0.4 NNW 9 9 5 5 1021.3 1021.4 0.0
05/12:00am 3.0 0.0 2.0 93 0.4 NW 7 9 4 5 1021.6 1021.7 0.0
 
Date/Time
CST
Tmp

°C
App
Tmp
°C
Dew
Point
°C
Rel
Hum
%
Delta-T

°C
Wind Press
QNH
hPa
Press
MSL
hPa
Rain
since
9 am
mm
Dir
 
Spd
km/h
Gust
km/h
Spd
kts
Gust
kts
04/11:30pm 4.9 2.1 3.4 90 0.6 NNW 7 9 4 5 1021.8 1021.9 0.0
04/11:00pm 4.8 2.0 3.3 90 0.6 NNW 7 9 4 5 1021.9 1022.0 0.0
04/10:30pm 6.0 3.4 4.1 88 0.8 NNW 7 9 4 5 1022.0 1022.1 0.0
04/10:00pm 6.9 4.0 4.6 85 1.0 N 9 11 5 6 1021.9 1022.0 0.0
04/09:30pm 7.7 5.4 5.5 86 1.0 NNW 7 9 4 5 1021.8 1021.9 0.0
04/09:00pm 9.6 8.0 6.4 80 1.5 WNW 4 7 2 4 1022.2 1022.3 0.0
04/08:30pm 10.6 8.0 6.3 75 2.0 WNW 9 11 5 6 1022.4 1022.5 0.0
04/08:00pm 10.6 9.4 7.9 83 1.3 NW 4 11 2 6 1022.5 1022.6 0.0
04/07:30pm 11.1 9.5 8.0 81 1.5 NW 6 6 3 3 1022.5 1022.6 0.0
04/07:00pm 12.1 10.0 8.2 77 1.9 WSW 9 13 5 7 1022.5 1022.6 0.0
04/06:30pm 10.6 8.6 7.2 79 1.6 SW 7 11 4 6 1022.4 1022.5 0.0
04/06:00pm 11.9 9.9 7.3 73 2.2 SSW 7 7 4 4 1022.1 1022.2 0.0
04/05:30pm 11.7 11.2 8.0 78 1.8 CALM 0 0 0 0 1021.8 1021.9 0.0
04/05:00pm 13.4 11.8 8.2 71 2.6 SSE 6 7 3 4 1021.7 1021.8 0.0
04/04:30pm 14.9 13.1 7.9 63 3.5 SSE 7 9 4 5 1021.7 1021.8 0.0
04/04:00pm 15.5 13.5 7.2 57 4.1 E 7 9 4 5 1021.7 1021.8 0.0
04/03:30pm 15.3 14.9 8.4 63 3.5 CALM 0 7 0 4 1021.7 1021.8 0.0
04/03:00pm 15.7 14.8 7.7 59 4.0 E 2 6 1 3 1021.8 1021.9 0.0
04/02:30pm 15.9 13.7 7.7 58 4.1 ENE 9 11 5 6 1021.8 1021.9 0.0
04/02:00pm 16.5 14.8 7.7 56 4.4 NE 6 9 3 5 1021.9 1022.0 0.0
04/01:30pm 16.7 14.8 7.7 55 4.5 ENE 7 17 4 9 1022.2 1022.3 0.0
04/01:00pm 15.8 14.0 7.8 59 4.0 NNE 7 11 4 6 1022.8 1022.9 0.0
04/12:30pm 14.8 12.6 8.0 64 3.4 NNE 9 13 5 7 1023.2 1023.3 0.0
04/12:00pm 15.6 12.9 7.3 57 4.1 NNE 11 13 6 7 1023.6 1023.7 0.0
04/11:30am 13.8 11.1 7.2 64 3.2 N 11 15 6 8 1024.1 1024.2 0.0
04/11:00am 12.7 9.5 6.9 68 2.8 N 13 15 7 8 1024.5 1024.6 0.0
04/10:30am 11.4 9.1 7.4 76 1.9 NNE 9 13 5 7 1024.7 1024.8 0.0
04/10:00am 9.7 7.3 6.9 83 1.3 N 9 13 5 7 1024.9 1025.0 0.0
04/09:30am 8.3 6.2 6.6 89 0.8 N 7 9 4 5 1024.9 1025.0 0.0
04/09:00am 7.2 5.0 6.1 93 0.5 N 7 9 4 5 1024.9 1025.0 0.0
04/08:30am 6.0 3.6 5.1 94 0.4 N 7 9 4 5 1024.7 1024.8 0.0
04/08:00am 5.5 3.0 4.8 95 0.3 N 7 9 4 5 1024.6 1024.7 0.0
04/07:30am 5.3 2.8 4.6 95 0.3 N 7 7 4 4 1024.5 1024.6 0.0
04/07:00am 5.0 2.0 4.3 95 0.3 N 9 11 5 6 1024.4 1024.5 0.0
04/06:30am 4.7 1.7 4.0 95 0.3 N 9 11 5 6 1024.3 1024.4 0.0
04/06:00am 4.2 1.5 3.5 95 0.3 N 7 9 4 5 1024.0 1024.1 0.0
04/05:30am 3.7 0.9 3.0 95 0.3 N 7 9 4 5 1023.9 1024.0 0.0
04/05:00am 1.6 -0.3 0.5 92 0.4 CALM 0 7 0 4 1023.9 1024.0 0.0
04/04:30am 1.9 0.1 1.1 94 0.3 CALM 0 0 0 0 1023.9 1024.0 0.0
04/04:00am 2.4 -0.6 1.9 96 0.2 N 7 9 4 5 1024.0 1024.1 0.0
04/03:30am 2.2 -1.2 1.7 96 0.2 N 9 9 5 5 1024.0 1024.1 0.0
04/03:00am 2.0 0.2 1.2 94 0.3 CALM 0 0 0 0 1024.2 1024.3 0.0
04/02:30am 1.0 -0.9 0.7 98 0.1 CALM 0 0 0 0 1024.3 1024.4 0.0
04/02:00am 2.4 0.7 1.9 96 0.2 CALM 0 0 0 0 1024.4 1024.5 0.0
04/01:30am 2.0 0.2 1.2 94 0.3 CALM 0 4 0 2 1024.6 1024.7 0.0
04/01:00am 3.8 1.0 3.1 95 0.3 NW 7 7 4 4 1024.8 1024.9 0.0
04/12:30am 4.2 1.5 3.5 95 0.3 N 7 9 4 5 1025.0 1025.1 0.0
04/12:00am 4.2 2.7 3.2 93 0.4 CALM 0 0 0 0 1025.3 1025.4 0.0
 
Date/Time
CST
Tmp

°C
App
Tmp
°C
Dew
Point
°C
Rel
Hum
%
Delta-T

°C
Wind Press
QNH
hPa
Press
MSL
hPa
Rain
since
9 am
mm
Dir
 
Spd
km/h
Gust
km/h
Spd
kts
Gust
kts
03/11:30pm 4.9 2.7 3.4 90 0.6 WNW 4 7 2 4 1025.6 1025.7 0.0
03/11:00pm 4.5 2.6 3.0 90 0.6 WNW 2 6 1 3 1025.6 1025.7 0.0
03/10:30pm 4.8 3.3 3.1 89 0.7 CALM 0 4 0 2 1025.9 1026.0 0.0
03/10:00pm 6.4 3.4 4.3 86 0.9 NW 9 11 5 6 1026.0 1026.1 0.0
03/09:30pm 6.4 3.9 4.0 85 1.0 NNW 6 7 3 4 1026.1 1026.2 0.0

Latest Capital City Observations: Canberra | Sydney | Melbourne | Brisbane | Adelaide | Perth | Hobart | Darwin

Other Formats:

Comma delimited format used in spreadsheet applications
http://www.bom.gov.au/fwo/IDS60901/IDS60901.95818.axf

JavaScript Object Notation format (JSON) in row-major order
http://www.bom.gov.au/fwo/IDS60901/IDS60901.95818.json